• Join FlightAware (Why Join?)
  • Login
  • US Flag 
12:13AM EDT


 

Airport Tracker/Info


-or-


 

Live Flight TrackerFlight Track Log ✈ EJA941 ✈ 17-Oct-2013 ✈ KSUX - KJAC

Flight Track Log - Related Links

Times and Time Zones

All times are in EDT time to prevent confusion due to time zone crossing. See the EJA941 flight status page for this flight to view local times or setup timezone preferences in your user account.

Time Position Orientation Groundspeed Altitude Reporting Facility
EDT Latitude Longitude Course Direction KTS MPH feet Rate Location/Type
11:22AM 42.4042 -96.4406 264° West 211 243 40,000  Level Minneapolis Center
11:23AM 42.3969 -96.5289 264° West 258 297 8,100 -14,220 Descending Minneapolis Center
11:24AM 42.4022 -96.6372 274° West 275 316 10,700 1,980 Climbing Minneapolis Center
11:25AM 42.4081 -96.7661 274° West 331 381 12,300 1,500 Climbing Minneapolis Center
11:26AM 42.4139 -96.9061 273° West 363 418 13,900 1,680 Climbing Minneapolis Center
11:27AM 42.4206 -97.0775 273° West 377 434 15,800 1,680 Climbing Minneapolis Center
11:28AM 42.4264 -97.2258 273° West 390 449 17,400 1,500 Climbing Minneapolis Center
11:29AM 42.4322 -97.3783 273° West 403 464 19,000 1,500 Climbing Minneapolis Center
11:31AM 42.4372 -97.5333 273° West 411 473 20,600 1,500 Climbing Minneapolis Center
11:32AM 42.4564 -97.6919 279° West 425 489 22,200 1,680 Climbing Minneapolis Center
11:33AM 42.4825 -97.8753 281° West 433 498 24,100 1,680 Climbing Minneapolis Center
11:34AM 42.5061 -98.0394 281° West 442 509 25,700 1,560 Climbing Minneapolis Center
11:35AM 42.5306 -98.2047 281° West 447 514 27,300 1,560 Climbing Minneapolis Center
11:36AM 42.5542 -98.3736 281° West 454 522 28,900 1,500 Climbing Minneapolis Center
11:37AM 42.5775 -98.5425 281° West 457 526 30,500 1,680 Climbing Minneapolis Center
11:38AM 42.6064 -98.7456 281° West 458 527 32,400 1,680 Climbing Minneapolis Center
11:39AM 42.6294 -98.9158 280° West 459 528 34,000 1,500 Climbing Minneapolis Center
11:40AM 42.6525 -99.0853 281° West 458 527 35,500 1,260 Climbing Minneapolis Center
11:41AM 42.6761 -99.2544 281° West 457 526 36,700 1,080 Climbing Minneapolis Center
11:42AM 42.6972 -99.4250 280° West 458 527 37,800 960 Climbing Minneapolis Center
11:43AM 42.7119 -99.5400 280° West 454 522 38,400 960 Climbing Denver Center
11:44AM 42.7381 -99.7417 280° West 451 519 39,500 720 Climbing Denver Center
11:45AM 42.7594 -99.9128 280° West 457 526 40,000 240 Climbing Denver Center
11:46AM 42.7814 -100.0819 280° West 455 524 40,000  Level Denver Center
11:47AM 42.8025 -100.2525 280° West 456 525 40,000  Level Denver Center
11:48AM 42.8236 -100.4250 280° West 459 528 40,000  Level Denver Center
11:49AM 42.8444 -100.5992 279° West 464 534 40,000  Level Denver Center
11:50AM 42.8653 -100.7697 280° West 458 527 40,000  Level Denver Center
11:51AM 42.8897 -100.9767 279° West 459 528 40,000  Level Denver Center
11:52AM 42.9081 -101.1456 278° West 453 521 40,000  Level Denver Center
11:53AM 42.9286 -101.3150 279° West 452 520 40,000  Level Denver Center
11:54AM 42.9494 -101.4989 279° West 453 521 40,000  Level Denver Center
11:55AM 42.9675 -101.6622 279° West 453 521 40,000  Level Denver Center
11:56AM 42.9889 -101.8494 279° West 453 521 40,000  Level Denver Center
11:57AM 43.0056 -102.0122 278° West 453 521 40,000  Level Denver Center
11:58AM 43.0258 -102.2011 278° West 451 519 40,000  Level Denver Center
11:59AM 43.0419 -102.3644 278° West 453 521 40,000  Level Denver Center
12:00PM 43.0628 -102.5550 279° West 454 522 40,000  Level Denver Center
12:01PM 43.0797 -102.7175 278° West 453 521 40,000  Level Denver Center
12:02PM 43.0978 -102.9069 278° West 452 520 40,000  Level Denver Center
12:03PM 43.1136 -103.0703 278° West 453 521 40,000  Level Denver Center
12:04PM 43.1303 -103.2358 278° West 456 525 40,000  Level Denver Center
12:05PM 43.1506 -103.4311 278° West 464 534 40,000  Level Denver Center
12:06PM 43.1658 -103.5975 277° West 462 532 40,000  Level Denver Center
12:07PM 43.1850 -103.7925 278° West 464 534 40,000  Level Denver Center
12:08PM 43.1994 -103.9600 277° West 464 534 40,000  Level Denver Center
12:09PM 43.2169 -104.1550 277° West 464 534 40,000  Level Denver Center
12:11PM 43.2319 -104.3217 277° West 463 533 40,000  Level Denver Center
12:12PM 43.2492 -104.5172 277° West 465 535 40,000  Level Denver Center
12:13PM 43.2631 -104.6850 277° West 465 535 40,000  Level Denver Center
12:14PM 43.2800 -104.8828 277° West 468 539 40,000  Level Denver Center
12:15PM 43.2939 -105.0500 277° West 467 537 40,000  Level Denver Center
12:16PM 43.3097 -105.2469 276° West 467 537 40,000  Level Denver Center
12:17PM 43.3228 -105.4172 276° West 468 539 40,000  Level Denver Center
12:18PM 43.3369 -105.6153 276° West 468 539 40,000  Level Denver Center
12:19PM 43.3494 -105.7850 276° West 468 539 40,000  Level Denver Center
12:20PM 43.3644 -105.9819 276° West 466 536 40,000 -540 Level Denver Center
12:21PM 43.3764 -106.1531 276° West 471 542 39,000 -1,020 Descending Denver Center
12:22PM 43.3894 -106.3564 275° West 479 551 38,000 -540 Descending Denver Center
12:23PM 43.4025 -106.5281 276° West 475 547 38,000  Level Denver Center
12:24PM 43.4097 -106.6450 275° West 476 548 38,000  Level Salt Lake Center
12:25PM 43.4233 -106.8464 275° West 476 548 38,000  Level Salt Lake Center
12:26PM 43.4322 -107.0033 275° West 473 544 38,000  Level Salt Lake Center
12:27PM 43.4458 -107.2217 275° West 478 550 38,000  Level Salt Lake Center
12:28PM 43.4572 -107.4019 275° West 475 547 38,000  Level Salt Lake Center
12:29PM 43.4678 -107.5844 275° West 477 549 38,000  Level Salt Lake Center
12:30PM 43.4772 -107.7675 274° West 480 552 38,000  Level Salt Lake Center
12:31PM 43.4881 -107.9508 275° West 481 554 38,000  Level Salt Lake Center
12:32PM 43.4983 -108.1353 274° West 483 556 38,000  Level Salt Lake Center
12:33PM 43.5069 -108.3169 274° West 478 550 38,000 -540 Level Salt Lake Center
12:34PM 43.5186 -108.5394 274° West 483 556 36,900 -1,140 Descending Salt Lake Center
12:35PM 43.5278 -108.7228 274° West 482 555 35,700 -1,200 Descending Salt Lake Center
12:36PM 43.5489 -108.9019 279° West 472 543 34,500 -1,380 Descending Salt Lake Center
12:37PM 43.5833 -109.0717 286° West 464 534 32,900 -2,280 Descending Salt Lake Center
12:38PM 43.6164 -109.2417 285° West 460 529 29,900 -2,820 Descending Salt Lake Center
12:39PM 43.6494 -109.4036 286° West 442 509 27,100 -2,700 Descending Salt Lake Center
12:40PM 43.6842 -109.5839 285° West 415 478 24,400 -2,280 Descending Salt Lake Center
12:41PM 43.7111 -109.7203 285° West 393 452 22,500 -1,980 Descending Salt Lake Center
12:42PM 43.7403 -109.8742 285° West 374 430 20,400 -2,040 Descending Salt Lake Center
12:43PM 43.7669 -110.0133 285° West 362 417 18,400 -1,980 Descending Salt Lake Center
12:44PM 43.7922 -110.1442 285° West 356 410 16,400 -1,800 Descending Salt Lake Center
12:45PM 43.8164 -110.2725 285° West 349 402 14,800 -1,740 Descending Salt Lake Center
12:46PM 43.8225 -110.4033 274° West 351 404 12,900 -1,620 Descending Salt Lake Center
12:47PM 43.8133 -110.5275 264° West 333 383 11,500 -1,380 Descending Salt Lake Center
12:48PM 43.7833 -110.6181 245° Southwest 278 320 10,100 -1,440 Descending Salt Lake Center
12:49PM 43.7211 -110.6825 217° Southwest 249 287 8,600 -1,260 Descending Salt Lake Center
12:50PM 43.6692 -110.7075 199° South 214 246 7,600 -960 Descending Salt Lake Center
12:51PM 43.6239 -110.7294 199° South 190 219 6,700 -900 Descending Salt Lake Center